sim
Sign-in with your pilot id or email,
or register
Callsign
Passwort

Schedule Details

Flight Number: DLH2390
Departure: Munich Airport (EDDM) at 20:50
Arrival: Geneva International Airport (LSGG) at 22:05
Route: Lufthansa Passenger Schedule. Enter filed route here before submitting Pirep.

Weather Information
Getting current METAR information for EDDM 280750Z VRB02KT 9999 -RA FEW005 BKN045 07/06 Q1010 NOSIG
Getting current METAR information for LSGG 280750Z 23004KT 200V280 9999 FEW005 BKN010 09/07 Q1011 NOSIG

Schedule Frequency

Route Map